Time;durP1;ratioP1;P1;durP2;ratioP2;P2;SDS_P1;SDS_P2;PMS_P1;PMS_P2;Temp;Humidity;BMP_temperature;BMP_pressure;BME280_temperature;BME280_humidity;BME280_pressure;Samples;Min_cycle;Max_cycle;Signal;HPM_P1;HPM_P2
2021/03/13 00:00:13;;;;;;;3.25;1.58;;;;;;;4.13;93.84;99400.56;4996641;28;20065;-80
2021/03/13 00:02:42;;;;;;;3.88;1.70;;;;;;;3.97;94.10;99399.69;5035439;28;20038;-78
2021/03/13 00:05:11;;;;;;;1.38;1.02;;;;;;;4.02;94.53;99397.69;5019604;28;20057;-79
2021/03/13 00:07:38;;;;;;;2.22;1.05;;;;;;;4.19;93.55;99396.81;5037917;28;20053;-82
2021/03/13 00:10:05;;;;;;;2.88;1.52;;;;;;;4.15;93.66;99400.50;5009499;28;20061;-81
2021/03/13 00:12:32;;;;;;;2.85;1.10;;;;;;;4.27;93.03;99402.44;5034149;28;20089;-81
2021/03/13 00:14:59;;;;;;;3.50;1.38;;;;;;;4.27;92.58;99402.44;5008100;28;20059;-79
2021/03/13 00:17:25;;;;;;;2.35;1.20;;;;;;;4.22;93.36;99401.84;5040520;23;21101;-72
2021/03/13 00:19:52;;;;;;;1.73;1.10;;;;;;;4.14;93.67;99407.44;4954846;28;20062;-73
2021/03/13 00:25:18;;;;;;;4.70;1.35;;;;;;;4.15;95.50;99411.75;4941943;28;20524;-70
2021/03/13 00:27:48;;;;;;;4.03;1.08;;;;;;;4.10;95.51;99408.56;4946273;28;20062;-71
2021/03/13 00:30:21;;;;;;;1.95;0.90;;;;;;;4.12;95.36;99413.66;4940332;28;20058;-69
2021/03/13 00:32:53;;;;;;;1.73;1.08;;;;;;;4.16;95.10;99410.84;4963478;28;20054;-71
2021/03/13 00:35:21;;;;;;;2.10;1.13;;;;;;;4.16;95.41;99405.63;4947608;28;20051;-71
2021/03/13 00:37:48;;;;;;;1.55;1.05;;;;;;;4.10;95.21;99411.16;4979699;28;20050;-72
2021/03/13 00:40:17;;;;;;;3.88;1.30;;;;;;;4.10;94.32;99410.28;4977683;28;20075;-69
2021/03/13 00:42:44;;;;;;;1.75;1.15;;;;;;;4.04;95.36;99406.25;4996276;28;20058;-70
2021/03/13 00:45:13;;;;;;;5.55;1.20;;;;;;;4.19;94.90;99408.06;4990685;28;20062;-71
2021/03/13 00:47:41;;;;;;;2.60;1.20;;;;;;;4.13;94.72;99404.94;4963475;28;20804;-69
2021/03/13 00:50:09;;;;;;;2.25;1.20;;;;;;;4.03;95.03;99405.41;4959797;28;20356;-70
2021/03/13 00:52:36;;;;;;;3.88;1.23;;;;;;;4.24;93.95;99400.03;4964305;28;20619;-71
2021/03/13 00:55:05;;;;;;;3.00;1.30;;;;;;;4.18;93.95;99397.72;4977376;28;20687;-73
2021/03/13 00:57:33;;;;;;;3.33;1.48;;;;;;;4.06;95.18;99394.00;4982469;28;20837;-73
2021/03/13 01:00:00;;;;;;;3.60;1.58;;;;;;;3.90;96.01;99393.94;4961343;28;20513;-73
2021/03/13 01:02:27;;;;;;;2.38;1.00;;;;;;;3.94;95.72;99394.63;4984242;28;20082;-73
2021/03/13 01:04:54;;;;;;;2.33;1.17;;;;;;;3.93;96.26;99395.56;4967660;28;20073;-73
2021/03/13 01:07:21;;;;;;;3.38;1.60;;;;;;;3.84;96.31;99389.06;4981372;28;20062;-71
2021/03/13 01:09:48;;;;;;;3.00;1.08;;;;;;;3.85;96.52;99401.16;4981479;28;20073;-73
2021/03/13 01:12:15;;;;;;;4.22;1.65;;;;;;;3.92;96.02;99399.94;4981928;28;20052;-73
2021/03/13 01:14:42;;;;;;;4.18;1.45;;;;;;;3.99;95.91;99398.66;4985759;28;20061;-72
2021/03/13 01:17:08;;;;;;;4.15;1.40;;;;;;;3.97;96.87;99397.09;4991131;28;20062;-72
2021/03/13 01:19:36;;;;;;;1.65;1.02;;;;;;;3.97;96.64;99392.72;4985014;28;20057;-72
2021/03/13 01:22:02;;;;;;;4.47;1.48;;;;;;;3.99;96.21;99397.84;4982114;28;20042;-72
2021/03/13 01:24:29;;;;;;;2.88;1.20;;;;;;;4.07;95.97;99396.53;4972440;28;20046;-73
2021/03/13 01:26:56;;;;;;;5.57;2.10;;;;;;;4.09;96.69;99393.00;4965682;28;20042;-71
2021/03/13 01:29:22;;;;;;;2.65;1.30;;;;;;;4.06;95.50;99392.25;4966545;28;20395;-72
2021/03/13 01:31:49;;;;;;;2.30;1.30;;;;;;;4.12;95.40;99385.03;4965560;28;20058;-71
2021/03/13 01:34:16;;;;;;;5.40;1.88;;;;;;;4.01;96.09;99389.03;4986419;28;20065;-71
2021/03/13 01:36:43;;;;;;;4.95;1.70;;;;;;;4.07;95.71;99391.31;4988014;28;20050;-70
2021/03/13 01:39:10;;;;;;;7.47;2.25;;;;;;;4.07;96.29;99386.09;4985696;28;20062;-68
2021/03/13 01:41:36;;;;;;;2.88;1.58;;;;;;;4.05;96.34;99385.34;4985542;28;20062;-69
2021/03/13 01:44:03;;;;;;;3.97;1.38;;;;;;;4.12;94.98;99379.81;4976913;28;20046;-71
2021/03/13 01:46:30;;;;;;;4.50;2.03;;;;;;;4.12;94.90;99379.81;4976026;28;20082;-71
2021/03/13 01:48:57;;;;;;;10.95;2.55;;;;;;;4.06;95.38;99387.03;4965887;28;20041;-70
2021/03/13 01:51:24;;;;;;;3.53;1.77;;;;;;;4.02;95.00;99384.66;4980366;28;20549;-70
2021/03/13 01:53:51;;;;;;;4.45;2.45;;;;;;;4.04;95.83;99390.63;4949654;28;20050;-70
2021/03/13 01:56:18;;;;;;;4.30;1.65;;;;;;;4.00;96.09;99391.69;4972698;28;20061;-69
2021/03/13 01:58:45;;;;;;;6.57;2.05;;;;;;;4.03;95.73;99376.75;4981323;28;20050;-71
2021/03/13 02:01:19;;;;;;;5.22;1.67;;;;;;;3.96;95.74;99383.22;4977587;28;20061;-71
2021/03/13 02:03:46;;;;;;;6.75;1.92;;;;;;;4.01;95.31;99385.59;4984210;28;20052;-70
2021/03/13 02:06:13;;;;;;;4.22;2.05;;;;;;;3.89;95.79;99381.84;4975291;28;20058;-70
2021/03/13 02:08:56;;;;;;;4.03;1.95;;;;;;;3.98;95.70;99378.78;4979006;28;20054;-69
2021/03/13 02:11:49;;;;;;;2.90;1.85;;;;;;;3.97;95.97;99379.69;4947188;28;20145;-71
2021/03/13 02:14:43;;;;;;;6.72;1.95;;;;;;;3.99;95.25;99382.22;4962523;28;20042;-70
2021/03/13 02:17:16;;;;;;;4.47;1.70;;;;;;;4.10;95.28;99373.81;4966044;28;20530;-70
2021/03/13 02:20:01;;;;;;;5.70;2.38;;;;;;;4.05;95.51;99376.66;4978850;28;20061;-71
2021/03/13 02:26:48;;;;;;;6.68;2.22;;;;;;;3.84;96.01;99380.41;4974007;28;20049;-71
2021/03/13 02:29:15;;;;;;;3.10;1.90;;;;;;;3.83;95.96;99384.78;4963833;28;20038;-71
2021/03/13 02:31:47;;;;;;;4.25;2.28;;;;;;;3.86;95.65;99386.38;4984343;28;20344;-70
2021/03/13 02:34:20;;;;;;;4.00;1.92;;;;;;;3.80;95.90;99380.56;4964915;28;20470;-69
2021/03/13 02:36:47;;;;;;;6.95;1.90;;;;;;;3.78;95.19;99374.59;4974993;28;20181;-71
2021/03/13 02:39:16;;;;;;;3.00;1.80;;;;;;;3.83;96.20;99382.19;4977681;28;20157;-69
2021/03/13 02:41:46;;;;;;;3.22;2.08;;;;;;;3.65;95.92;99377.88;4972481;28;20053;-73
2021/03/13 02:44:14;;;;;;;8.60;2.65;;;;;;;3.59;96.18;99375.59;4982704;28;20046;-73
2021/03/13 02:46:45;;;;;;;7.38;2.78;;;;;;;3.78;95.93;99379.81;4950441;28;20843;-74
2021/03/13 02:49:13;;;;;;;4.20;2.78;;;;;;;3.83;95.33;99365.69;4950754;28;20054;-71
2021/03/13 02:51:41;;;;;;;6.82;2.58;;;;;;;3.78;94.84;99372.00;4962787;28;20054;-73
2021/03/13 02:54:09;;;;;;;6.95;3.00;;;;;;;3.82;94.82;99364.84;4965712;28;20510;-72
2021/03/13 02:56:37;;;;;;;6.40;3.13;;;;;;;3.98;94.05;99365.75;4953794;28;20156;-73
2021/03/13 02:59:05;;;;;;;8.85;3.53;;;;;;;3.97;94.18;99374.50;4964549;28;20046;-70
2021/03/13 03:01:33;;;;;;;6.32;3.00;;;;;;;3.89;93.57;99373.19;4946826;28;20054;-72
2021/03/13 03:04:01;;;;;;;5.93;3.15;;;;;;;3.93;94.53;99372.97;4982971;28;20082;-73
2021/03/13 03:06:31;;;;;;;4.57;2.83;;;;;;;4.14;93.52;99372.75;4982616;28;20054;-71
2021/03/13 03:08:58;;;;;;;7.75;3.08;;;;;;;4.24;93.02;99364.38;4984766;28;20050;-72
2021/03/13 03:11:25;;;;;;;10.98;3.08;;;;;;;4.14;92.92;99375.34;4969093;28;20054;-73
2021/03/13 03:13:52;;;;;;;8.07;2.90;;;;;;;4.04;93.47;99372.41;4971102;28;20061;-73
2021/03/13 03:16:20;;;;;;;6.03;2.75;;;;;;;3.98;93.94;99375.31;4974232;28;20081;-73
2021/03/13 03:18:51;;;;;;;6.03;2.53;;;;;;;4.04;93.88;99370.63;4969789;28;20074;-73
2021/03/13 03:21:18;;;;;;;7.85;2.63;;;;;;;4.03;92.76;99370.72;4963587;28;20069;-74
2021/03/13 03:23:46;;;;;;;5.20;2.47;;;;;;;4.02;93.28;99376.84;4970328;28;20177;-71
2021/03/13 03:26:12;;;;;;;6.65;2.72;;;;;;;3.89;93.70;99381.84;4949386;28;20062;-73
2021/03/13 03:28:40;;;;;;;6.10;2.50;;;;;;;3.83;93.88;99381.31;4981559;28;20570;-71
2021/03/13 03:31:07;;;;;;;3.95;2.80;;;;;;;3.83;93.29;99384.78;4946522;28;20379;-73
2021/03/13 03:33:34;;;;;;;7.68;2.08;;;;;;;3.76;93.42;99386.84;4978516;28;20450;-71
2021/03/13 03:36:01;;;;;;;7.93;2.97;;;;;;;3.62;93.98;99380.66;4980749;28;20363;-73
2021/03/13 03:38:28;;;;;;;4.63;1.98;;;;;;;3.61;94.08;99377.22;4983094;28;20076;-72
2021/03/13 03:40:54;;;;;;;4.45;2.17;;;;;;;3.57;94.27;99370.47;4981053;28;20074;-71
2021/03/13 03:43:31;;;;;;;6.50;1.88;;;;;;;3.59;93.97;99373.81;4967053;28;20050;-72
2021/03/13 03:46:00;;;;;;;5.18;2.35;;;;;;;3.53;93.47;99363.72;4965197;28;20140;-70
2021/03/13 03:48:27;;;;;;;6.80;2.40;;;;;;;3.52;93.46;99362.06;4962265;28;20080;-71
2021/03/13 03:50:55;;;;;;;4.63;2.17;;;;;;;3.45;94.28;99363.28;4962486;28;20057;-73
2021/03/13 03:53:32;;;;;;;3.53;1.98;;;;;;;3.46;93.54;99363.19;4964506;28;20161;-72
2021/03/13 03:55:59;;;;;;;4.75;2.08;;;;;;;3.43;93.88;99355.56;4978777;28;20053;-72
2021/03/13 03:58:29;;;;;;;4.60;1.83;;;;;;;3.45;93.63;99361.50;4963541;28;20073;-72
2021/03/13 04:00:57;;;;;;;3.22;1.83;;;;;;;3.60;92.95;99357.28;4985655;28;20054;-72
2021/03/13 04:03:24;;;;;;;7.43;1.92;;;;;;;3.57;92.61;99354.84;4988473;28;20522;-72
2021/03/13 04:05:52;;;;;;;4.57;1.92;;;;;;;3.61;92.09;99358.16;4948415;28;20057;-73
2021/03/13 04:08:19;;;;;;;3.35;1.92;;;;;;;3.58;91.90;99351.34;4964772;28;20058;-73
2021/03/13 04:10:47;;;;;;;6.95;1.42;;;;;;;3.54;92.42;99358.44;4991846;28;20058;-72
2021/03/13 04:13:19;;;;;;;2.45;1.77;;;;;;;3.43;92.65;99368.56;4971141;28;20518;-72
2021/03/13 04:15:47;;;;;;;4.85;2.15;;;;;;;3.44;92.44;99365.03;4950563;28;20133;-71
2021/03/13 04:18:16;;;;;;;3.35;1.77;;;;;;;3.50;92.28;99358.69;4978733;28;20066;-71
2021/03/13 04:20:46;;;;;;;2.78;1.77;;;;;;;3.40;92.21;99353.09;4975624;28;20198;-72
2021/03/13 04:23:17;;;;;;;4.38;2.47;;;;;;;3.48;91.62;99350.97;4976213;28;20417;-71
2021/03/13 04:25:47;;;;;;;6.22;1.92;;;;;;;3.41;92.82;99354.78;4979820;28;20054;-73
2021/03/13 04:28:14;;;;;;;4.47;1.48;;;;;;;3.51;91.82;99353.41;4982538;28;20494;-71
2021/03/13 04:30:41;;;;;;;2.90;1.73;;;;;;;3.36;91.88;99351.56;4974841;28;20054;-73
2021/03/13 04:33:16;;;;;;;2.80;1.60;;;;;;;3.31;92.89;99348.34;4986890;28;20065;-70
2021/03/13 04:35:43;;;;;;;3.50;1.65;;;;;;;3.20;92.83;99350.66;4986491;28;20476;-73
2021/03/13 04:38:10;;;;;;;3.78;1.80;;;;;;;3.23;92.44;99358.28;4966918;28;20038;-70
2021/03/13 04:40:37;;;;;;;3.67;1.58;;;;;;;3.46;92.39;99363.19;4993315;28;20177;-71
2021/03/13 04:43:05;;;;;;;4.40;1.88;;;;;;;3.53;92.62;99358.53;4975669;28;20066;-74
2021/03/13 04:45:33;;;;;;;4.78;1.80;;;;;;;3.58;91.73;99356.53;4967939;28;20081;-70
2021/03/13 04:48:00;;;;;;;4.85;1.58;;;;;;;3.80;90.78;99348.47;4962199;28;20053;-72
2021/03/13 04:50:27;;;;;;;3.72;1.92;;;;;;;3.83;90.48;99343.13;4979012;28;20074;-72
2021/03/13 04:52:54;;;;;;;4.22;1.52;;;;;;;3.96;89.28;99344.16;4943371;28;20248;-73
2021/03/13 04:55:21;;;;;;;5.07;1.92;;;;;;;4.03;89.71;99344.69;4985374;28;20065;-72
2021/03/13 04:57:48;;;;;;;4.97;1.55;;;;;;;3.97;89.66;99342.41;4978421;28;20275;-71
2021/03/13 05:00:15;;;;;;;4.65;1.60;;;;;;;3.78;89.81;99335.56;4959467;28;20604;-71
2021/03/13 05:02:42;;;;;;;2.72;1.30;;;;;;;3.80;90.06;99338.06;4983693;28;20062;-74
2021/03/13 05:05:09;;;;;;;5.32;1.58;;;;;;;3.81;90.06;99335.38;4968491;28;21061;-72
2021/03/13 05:07:36;;;;;;;6.05;1.88;;;;;;;3.90;89.71;99333.22;4987926;28;20534;-73
2021/03/13 05:10:05;;;;;;;9.38;2.08;;;;;;;3.81;90.33;99331.94;4979913;28;20100;-71
2021/03/13 05:12:31;;;;;;;6.00;1.75;;;;;;;3.71;90.07;99331.56;4979937;28;20060;-73
2021/03/13 05:14:58;;;;;;;4.55;1.60;;;;;;;3.50;91.06;99330.91;4983268;28;20081;-71
2021/03/13 05:17:25;;;;;;;3.65;1.55;;;;;;;3.52;91.25;99334.28;4983409;28;20058;-69
2021/03/13 05:19:52;;;;;;;4.88;1.58;;;;;;;3.42;92.26;99319.19;4981025;28;20057;-69
2021/03/13 05:22:19;;;;;;;2.90;1.58;;;;;;;3.31;92.58;99319.75;4976864;28;20118;-70
2021/03/13 05:24:46;;;;;;;4.18;1.95;;;;;;;3.42;91.92;99322.66;4962501;28;20054;-71
2021/03/13 05:27:13;;;;;;;2.13;1.42;;;;;;;3.52;92.24;99328.22;4960983;28;20065;-73
2021/03/13 05:29:41;;;;;;;5.28;1.52;;;;;;;3.68;90.71;99320.47;4981255;28;20070;-72
2021/03/13 05:32:07;;;;;;;6.22;2.10;;;;;;;3.74;90.26;99313.19;4965261;28;20555;-71
2021/03/13 05:34:35;;;;;;;3.90;1.80;;;;;;;3.71;90.47;99317.72;4967540;28;20093;-71
2021/03/13 05:37:01;;;;;;;4.90;1.92;;;;;;;3.70;90.54;99305.63;4983848;28;20051;-72
2021/03/13 05:39:28;;;;;;;3.42;1.60;;;;;;;3.83;89.92;99308.41;4965708;28;20120;-72
2021/03/13 05:41:55;;;;;;;5.78;1.55;;;;;;;3.93;89.94;99307.88;4965946;28;20057;-73
2021/03/13 05:44:22;;;;;;;4.10;1.63;;;;;;;3.96;89.69;99307.72;4965671;28;20054;-72
2021/03/13 05:46:49;;;;;;;4.97;2.05;;;;;;;4.17;88.71;99304.88;4983467;28;20136;-73
2021/03/13 05:49:17;;;;;;;4.60;1.65;;;;;;;4.29;87.65;99299.84;4966475;28;20042;-71
2021/03/13 05:51:46;;;;;;;5.72;1.83;;;;;;;4.42;87.58;99291.38;4979661;28;20538;-69
2021/03/13 05:54:21;;;;;;;5.18;1.73;;;;;;;4.64;86.08;99298.81;4977789;28;20062;-71
2021/03/13 05:56:48;;;;;;;;;;;;;;;4.64;86.10;99291.00;4965685;28;20046;-68
2021/03/13 05:59:15;;;;;;;3.03;1.55;;;;;;;4.83;85.40;99291.66;4965498;28;19980;-71
2021/03/13 06:01:43;;;;;;;4.32;1.83;;;;;;;4.87;85.26;99284.53;4959863;28;20062;-71
2021/03/13 06:04:23;;;;;;;6.93;1.80;;;;;;;4.98;84.58;99282.97;4979723;28;20553;-69
2021/03/13 06:06:52;;;;;;;6.00;1.88;;;;;;;4.84;84.58;99282.91;4982667;28;20069;-71
2021/03/13 06:09:19;;;;;;;5.28;2.15;;;;;;;4.78;85.79;99280.66;4965776;28;20101;-69
2021/03/13 06:11:46;;;;;;;3.78;1.85;;;;;;;4.89;84.63;99290.47;4958714;28;20549;-69
2021/03/13 06:14:13;;;;;;;3.70;1.60;;;;;;;4.88;85.20;99281.81;4944771;28;20054;-70
2021/03/13 06:16:41;;;;;;;5.80;1.88;;;;;;;4.95;84.04;99274.47;4948154;28;20054;-70
2021/03/13 06:19:08;;;;;;;3.58;1.98;;;;;;;4.89;84.71;99265.22;4962638;28;20050;-70
2021/03/13 06:21:37;;;;;;;4.88;2.20;;;;;;;4.93;84.18;99265.91;4961970;28;20434;-72
2021/03/13 06:24:10;;;;;;;4.38;1.80;;;;;;;5.02;83.63;99263.59;4983353;28;20145;-71
2021/03/13 06:27:09;;;;;;;3.28;1.90;;;;;;;5.07;83.67;99256.34;4968374;28;20058;-72
2021/03/13 06:29:36;;;;;;;5.22;2.15;;;;;;;5.34;82.74;99248.66;4940633;28;20065;-71
2021/03/13 06:32:13;;;;;;;4.18;1.90;;;;;;;5.30;82.78;99249.78;4947277;28;20050;-73
2021/03/13 06:35:19;;;;;;;3.78;1.67;;;;;;;5.62;82.42;99251.41;4981993;28;20046;-71
2021/03/13 06:37:47;;;;;;;5.60;1.80;;;;;;;5.94;80.56;99250.28;4993934;28;20065;-71
2021/03/13 06:40:37;;;;;;;3.90;2.08;;;;;;;5.85;80.49;99248.22;4994301;28;20153;-70
2021/03/13 06:43:25;;;;;;;3.13;1.73;;;;;;;6.12;79.25;99247.47;4980649;28;20057;-70
2021/03/13 06:46:05;;;;;;;5.22;2.25;;;;;;;6.18;78.82;99244.50;4978973;28;20169;-70
2021/03/13 06:48:42;;;;;;;3.13;2.15;;;;;;;6.24;78.55;99237.09;4979586;28;21523;-74
2021/03/13 06:51:19;;;;;;;6.03;2.00;;;;;;;6.13;79.39;99244.78;4966112;28;20129;-73
2021/03/13 06:53:58;;;;;;;4.60;1.88;;;;;;;6.24;78.46;99231.03;4979351;28;20050;-72
2021/03/13 06:56:26;;;;;;;2.92;2.00;;;;;;;6.14;78.36;99240.41;4979779;28;20125;-72
2021/03/13 06:58:54;;;;;;;4.65;1.70;;;;;;;6.01;79.09;99230.69;4985086;28;20058;-73
2021/03/13 07:01:29;;;;;;;3.25;1.80;;;;;;;6.01;79.43;99225.47;4974217;28;20117;-71
2021/03/13 07:03:57;;;;;;;5.67;2.17;;;;;;;6.11;78.87;99224.91;4966001;28;20050;-72
2021/03/13 07:06:25;;;;;;;4.57;2.40;;;;;;;6.10;79.14;99226.69;4985675;28;20054;-72
2021/03/13 07:08:55;;;;;;;6.00;1.80;;;;;;;6.02;78.96;99213.25;4966945;28;20114;-71
2021/03/13 07:11:24;;;;;;;3.72;1.70;;;;;;;6.05;78.78;99213.06;4988702;28;20054;-72
2021/03/13 07:13:54;;;;;;;4.07;1.35;;;;;;;6.00;78.82;99215.13;4991718;28;20046;-75
2021/03/13 07:16:21;;;;;;;4.43;1.35;;;;;;;6.19;78.67;99209.59;4972742;28;20042;-75
2021/03/13 07:18:48;;;;;;;4.07;1.63;;;;;;;6.25;78.45;99207.41;5006521;23;20048;-77
2021/03/13 07:21:16;;;;;;;5.93;1.60;;;;;;;6.13;78.70;99220.44;5049699;28;20106;-80
2021/03/13 07:23:45;;;;;;;2.00;1.48;;;;;;;6.31;77.81;99206.19;5036718;28;20181;-79
2021/03/13 07:26:14;;;;;;;2.40;1.38;;;;;;;6.36;78.43;99206.75;5046225;28;20060;-80
2021/03/13 07:28:43;;;;;;;7.80;1.60;;;;;;;6.48;78.02;99202.47;5017998;28;20061;-81
2021/03/13 07:31:11;;;;;;;6.82;2.00;;;;;;;6.36;79.05;99213.75;5023070;28;20053;-78
2021/03/13 07:33:39;;;;;;;3.83;1.60;;;;;;;6.37;79.61;99197.97;5010103;28;20121;-80
2021/03/13 07:36:15;;;;;;;6.32;1.75;;;;;;;6.31;79.85;99198.38;5009819;28;20072;-81
2021/03/13 07:38:44;;;;;;;;;;;;;;;6.20;81.64;99191.19;5018358;28;20069;-79
2021/03/13 07:41:15;;;;;;;3.97;1.83;;;;;;;6.24;80.96;99192.66;5015055;28;19968;-79
2021/03/13 07:43:44;;;;;;;11.65;2.88;;;;;;;6.29;81.40;99190.59;5024295;28;20352;-80
2021/03/13 07:46:14;;;;;;;10.50;2.58;;;;;;;6.33;81.95;99189.47;5032725;28;20042;-79
2021/03/13 07:48:41;;;;;;;7.50;1.85;;;;;;;6.38;82.37;99178.72;5030025;28;20056;-81
2021/03/13 07:51:09;;;;;;;3.22;2.10;;;;;;;6.54;82.17;99186.41;5012528;28;20076;-78
2021/03/13 07:53:39;;;;;;;5.25;1.95;;;;;;;6.41;82.78;99181.13;5035393;28;20112;-78
2021/03/13 07:56:13;;;;;;;2.85;1.70;;;;;;;6.50;82.32;99183.16;5033358;28;20077;-80
2021/03/13 07:58:41;;;;;;;2.72;1.80;;;;;;;6.12;83.85;99187.38;5015303;28;20059;-84
2021/03/13 08:01:48;;;;;;;4.88;1.80;;;;;;;6.03;85.46;99176.59;4982479;28;20132;-84
2021/03/13 08:04:42;;;;;;;3.17;2.38;;;;;;;5.98;86.15;99162.97;4998895;28;20049;-84
2021/03/13 08:07:10;;;;;;;8.38;2.80;;;;;;;5.92;87.34;99154.69;4994181;28;20058;-83
2021/03/13 08:09:43;;;;;;;7.30;2.42;;;;;;;5.80;88.43;99153.66;5024915;28;20037;-85
2021/03/13 08:12:11;;;;;;;4.97;2.60;;;;;;;5.68;87.90;99154.44;5015476;28;20936;-83
2021/03/13 08:14:43;;;;;;;4.22;2.17;;;;;;;5.80;88.20;99143.22;5022047;28;20920;-86
2021/03/13 08:17:11;;;;;;;4.45;2.92;;;;;;;5.73;89.71;99142.78;5002007;28;20077;-85
2021/03/13 08:19:40;;;;;;;7.93;2.67;;;;;;;5.60;90.86;99149.69;5015600;28;20825;-85
2021/03/13 08:22:14;;;;;;;5.10;2.60;;;;;;;5.74;89.72;99139.22;4995561;28;20136;-83
2021/03/13 08:24:44;;;;;;;6.55;2.95;;;;;;;5.76;89.40;99126.91;5016210;28;20042;-85
2021/03/13 08:27:12;;;;;;;4.53;3.10;;;;;;;5.49;91.54;99128.63;5010394;28;20064;-86
2021/03/13 08:29:48;;;;;;;7.25;3.38;;;;;;;5.45;92.56;99122.78;5019252;28;20029;-87
2021/03/13 08:32:16;;;;;;;6.90;3.20;;;;;;;5.55;92.56;99113.44;5016645;28;20033;-83
2021/03/13 08:34:45;;;;;;;6.28;2.78;;;;;;;5.44;92.61;99110.63;5035604;28;20080;-82
2021/03/13 08:37:20;;;;;;;5.88;3.33;;;;;;;5.37;93.62;99106.75;5012868;28;20038;-83
2021/03/13 08:39:47;;;;;;;;;;;;;;;5.53;93.72;99093.56;5000797;28;20171;-83
2021/03/13 08:42:31;;;;;;;6.30;3.03;;;;;;;5.78;91.93;99085.03;5015571;28;19929;-82
2021/03/13 08:45:16;;;;;;;5.78;3.05;;;;;;;5.59;92.71;99082.75;5018805;28;20025;-84
2021/03/13 08:47:53;;;;;;;6.03;2.78;;;;;;;5.58;92.74;99074.09;5029287;28;20060;-82
2021/03/13 08:50:43;;;;;;;3.72;2.63;;;;;;;5.48;92.93;99064.31;5016103;28;20048;-86
2021/03/13 08:53:29;;;;;;;6.97;3.08;;;;;;;5.41;93.97;99058.66;5028083;28;20064;-83
2021/03/13 08:55:56;;;;;;;7.68;2.80;;;;;;;5.37;94.70;99051.94;4999200;28;20038;-82
2021/03/13 08:58:45;;;;;;;6.35;3.42;;;;;;;5.40;94.74;99056.94;5048157;28;20127;-84
2021/03/13 09:01:20;;;;;;;5.03;3.03;;;;;;;5.43;95.97;99043.72;5014857;28;20049;-83
2021/03/13 09:03:50;;;;;;;5.60;3.58;;;;;;;5.42;96.35;99033.38;5022561;28;20506;-83
2021/03/13 09:06:22;;;;;;;4.57;2.90;;;;;;;5.50;95.88;99024.13;5000923;28;20045;-82
2021/03/13 09:08:50;;;;;;;5.53;2.92;;;;;;;5.55;96.17;99018.63;5001724;28;20069;-83
2021/03/13 09:11:27;;;;;;;5.90;3.13;;;;;;;5.72;95.31;99010.56;5014704;28;20054;-83
2021/03/13 09:14:01;;;;;;;7.15;3.67;;;;;;;5.65;96.05;99011.03;4990867;28;20037;-82
2021/03/13 09:16:34;;;;;;;6.45;3.10;;;;;;;5.63;96.34;99005.06;4978548;28;20460;-85
2021/03/13 09:19:02;;;;;;;6.50;2.92;;;;;;;5.66;96.87;98999.66;4995099;28;20092;-82
2021/03/13 09:21:47;;;;;;;7.40;3.22;;;;;;;5.56;97.40;98981.97;4973742;28;20075;-84
2021/03/13 09:24:20;;;;;;;6.25;3.33;;;;;;;5.56;97.39;98981.97;5027396;28;20758;-81
2021/03/13 09:27:00;;;;;;;6.53;4.00;;;;;;;5.69;99.06;98968.97;5012425;28;20042;-82
2021/03/13 09:29:42;;;;;;;5.60;2.97;;;;;;;5.63;98.63;98966.75;5016567;28;20060;-84
2021/03/13 09:32:11;;;;;;;6.82;3.50;;;;;;;5.67;99.05;98956.94;5032839;28;20050;-83
2021/03/13 09:34:50;;;;;;;5.97;3.35;;;;;;;5.74;98.66;98948.59;5019735;28;20049;-83
2021/03/13 09:37:26;;;;;;;7.93;3.65;;;;;;;5.78;98.99;98937.03;5034687;28;20065;-83
2021/03/13 09:39:55;;;;;;;9.77;3.80;;;;;;;5.76;98.06;98930.22;5008094;28;20049;-82
2021/03/13 09:42:24;;;;;;;5.03;2.70;;;;;;;5.80;98.85;98921.25;4999825;28;20533;-83
2021/03/13 09:44:55;;;;;;;6.35;3.00;;;;;;;5.74;98.28;98919.06;5016002;28;20508;-84
2021/03/13 09:47:28;;;;;;;3.53;2.72;;;;;;;5.77;98.09;98918.88;5019014;28;20069;-82
2021/03/13 09:50:26;;;;;;;5.00;2.92;;;;;;;5.91;98.38;98905.72;5014172;28;20053;-83
2021/03/13 09:52:53;;;;;;;4.93;3.15;;;;;;;6.03;97.91;98897.09;4993987;28;20050;-84
2021/03/13 09:55:24;;;;;;;4.68;2.92;;;;;;;5.98;97.76;98888.72;5006437;28;20038;-81
2021/03/13 09:58:02;;;;;;;5.63;3.03;;;;;;;5.83;98.42;98879.28;5003325;28;20041;-84
2021/03/13 10:00:30;;;;;;;4.65;2.25;;;;;;;5.91;97.87;98873.53;5038182;28;20054;-85
2021/03/13 10:02:59;;;;;;;3.30;2.20;;;;;;;5.87;97.98;98877.31;4996882;28;20026;-83
2021/03/13 10:05:31;;;;;;;3.90;2.13;;;;;;;5.90;98.42;98871.84;5019473;28;20061;-84
2021/03/13 10:08:05;;;;;;;5.50;2.22;;;;;;;6.03;98.20;98878.81;5035400;28;20029;-84
2021/03/13 10:10:32;;;;;;;5.07;1.85;;;;;;;5.97;97.24;98866.16;5024731;28;20021;-81
2021/03/13 10:13:18;;;;;;;6.72;2.55;;;;;;;5.91;98.12;98856.09;5019790;28;20052;-82
2021/03/13 10:15:46;;;;;;;4.78;2.13;;;;;;;5.91;98.69;98865.72;5024357;28;20061;-83
2021/03/13 10:18:18;;;;;;;2.72;2.35;;;;;;;5.96;98.95;98840.16;5027822;23;20063;-72
2021/03/13 10:20:50;;;;;;;3.72;2.65;;;;;;;5.98;97.92;98825.19;5014213;28;20058;-71
2021/03/13 10:23:19;;;;;;;3.45;2.10;;;;;;;6.14;98.04;98832.81;5017112;28;20085;-71
2021/03/13 10:26:12;;;;;;;6.38;1.95;;;;;;;6.26;97.30;98816.25;5020010;28;20461;-75
2021/03/13 10:28:43;;;;;;;2.22;1.63;;;;;;;6.51;96.85;98811.00;5025119;28;20061;-73
2021/03/13 10:31:13;;;;;;;2.50;1.75;;;;;;;6.62;95.77;98806.75;5009877;28;20112;-73
2021/03/13 10:33:41;;;;;;;3.05;1.85;;;;;;;6.56;95.37;98802.81;4994161;28;20095;-74
2021/03/13 10:36:09;;;;;;;3.25;2.00;;;;;;;6.63;95.25;98800.63;5011934;28;20065;-74
2021/03/13 10:38:43;;;;;;;2.83;1.90;;;;;;;6.72;95.39;98800.78;4987323;28;20054;-72
2021/03/13 10:41:15;;;;;;;4.35;1.70;;;;;;;6.78;94.49;98791.66;5002356;28;20049;-73
2021/03/13 10:43:43;;;;;;;2.83;1.60;;;;;;;6.83;93.86;98785.13;5007769;28;20081;-73
2021/03/13 10:46:25;;;;;;;1.92;1.40;;;;;;;6.88;94.26;98781.34;5021991;28;20053;-71
2021/03/13 10:48:54;;;;;;;4.68;1.67;;;;;;;6.82;94.85;98780.03;5008545;28;20072;-69
2021/03/13 10:51:46;;;;;;;2.35;1.33;;;;;;;6.83;94.35;98768.59;5003547;28;20049;-72
2021/03/13 10:54:23;;;;;;;3.70;1.52;;;;;;;7.02;93.41;98755.00;4998884;28;20823;-72
2021/03/13 10:56:50;;;;;;;4.10;1.63;;;;;;;6.86;94.06;98752.69;5009740;28;20099;-72
2021/03/13 10:59:17;;;;;;;3.28;1.00;;;;;;;6.81;94.42;98746.97;4993694;28;20057;-70
2021/03/13 11:01:45;;;;;;;3.88;1.63;;;;;;;6.88;93.84;98737.72;4990768;28;20083;-72
2021/03/13 11:04:13;;;;;;;2.15;1.60;;;;;;;6.75;94.84;98740.38;5023729;28;20065;-72
2021/03/13 11:06:40;;;;;;;1.98;1.40;;;;;;;6.77;95.71;98748.16;5024553;28;20054;-71
2021/03/13 11:09:09;;;;;;;5.00;1.50;;;;;;;6.86;94.90;98747.47;4982499;28;20053;-71
2021/03/13 11:11:37;;;;;;;5.20;1.30;;;;;;;6.87;94.94;98738.66;5005327;28;20065;-70
2021/03/13 11:14:07;;;;;;;3.95;1.77;;;;;;;7.00;93.43;98730.75;5018983;28;20057;-71
2021/03/13 11:16:34;;;;;;;2.80;1.35;;;;;;;7.03;93.38;98722.69;4996911;28;20057;-69
2021/03/13 11:19:02;;;;;;;3.97;1.45;;;;;;;7.19;93.26;98722.34;5002896;28;20046;-71
2021/03/13 11:21:30;;;;;;;1.98;1.30;;;;;;;7.05;93.25;98711.13;4998736;28;20058;-72
2021/03/13 11:23:57;;;;;;;5.50;1.60;;;;;;;7.23;92.08;98708.91;4995226;28;20063;-72
2021/03/13 11:26:24;;;;;;;4.25;1.60;;;;;;;7.55;91.26;98700.38;5009681;28;20053;-71
2021/03/13 11:28:51;;;;;;;1.48;1.27;;;;;;;7.55;89.99;98700.38;5029976;28;20053;-72
2021/03/13 11:31:19;;;;;;;2.67;1.38;;;;;;;7.52;90.48;98703.22;5003662;28;20574;-71
2021/03/13 11:33:47;;;;;;;3.63;1.30;;;;;;;7.48;90.55;98692.19;5005614;28;20711;-70
2021/03/13 11:36:14;;;;;;;2.75;1.15;;;;;;;7.56;90.07;98684.56;5003987;28;20073;-72
2021/03/13 11:38:41;;;;;;;2.45;1.00;;;;;;;7.34;90.01;98684.56;5008688;28;20085;-71
2021/03/13 11:41:11;;;;;;;2.00;1.20;;;;;;;7.49;90.21;98678.13;5000558;28;20821;-72
2021/03/13 11:43:41;;;;;;;3.80;1.85;;;;;;;7.78;89.59;98673.25;5003869;28;20058;-72
2021/03/13 11:46:13;;;;;;;9.07;4.18;;;;;;;7.93;89.61;98660.75;5001319;28;20866;-70
2021/03/13 11:48:41;;;;;;;2.45;1.23;;;;;;;8.02;87.72;98651.31;4982569;28;20552;-71
2021/03/13 11:51:09;;;;;;;1.83;1.10;;;;;;;8.31;85.38;98646.34;5002747;28;20073;-72
2021/03/13 11:53:36;;;;;;;2.58;1.27;;;;;;;8.49;84.81;98634.38;5006922;28;20060;-70
2021/03/13 11:56:04;;;;;;;2.15;1.45;;;;;;;8.73;83.28;98635.94;5011612;28;20041;-72
2021/03/13 11:58:30;;;;;;;2.92;1.58;;;;;;;8.73;83.26;98636.75;5018416;28;20053;-72
2021/03/13 12:01:15;;;;;;;3.25;1.00;;;;;;;8.70;83.15;98631.78;5005664;28;20295;-71
2021/03/13 12:03:43;;;;;;;2.80;1.20;;;;;;;8.99;82.62;98618.84;5004320;28;20071;-72